Millington, TN (38053)

3:25 PM CST on February 06, 2016 (GMT -0600)
Lucy | | Change Station
CLOSE
Current Station
Personal Weather Station
Location: Millington, TN
Elevation: 276 ft
Nearby Weather Stations

Elev 276 ft 35.31 °N, 89.93 °W | Updated 40 seconds ago

Mostly Cloudy
Mostly Cloudy
52.9 °F
Feels Like 52.9 °F
N
0.0
Wind Variable Wind from East
Gusts 0.0 mph

Today
High -- | Low -- °F
--% Chance of Precip.
Yesterday
High -- | Low -- °F
Precip. -- in
Pressure 30.30 in
Visibility 10.0 miles
Clouds Scattered Clouds 15000 ft
Mostly Cloudy 25000 ft
Dew Point 16 °F
Humidity 23%
Rainfall 0.00 in
Snow Depth Not available.
6:55 AM 5:32 PM
Waning Crescent, 4% visible
METAR KNQA 062050Z 00000KT 10SM SCT150 BKN250 11/M06 A3030
Pressure 30.30 in
Visibility 10.0 miles
Clouds Scattered Clouds 15000 ft
Mostly Cloudy 25000 ft
Dew Point 16 °F
Humidity 23%
Rainfall 0.00 in
Snow Depth Not available.
6:55 AM 5:32 PM
Waning Crescent, 4% visible
METAR KNQA 062050Z 00000KT 10SM SCT150 BKN250 11/M06 A3030

10-Day Weather Forecast

Almanac

Astronomy

Feb. 06, 2016 Rise Set
Actual Time
Civil Twilight
Nautical Twilight
Astronomical Twilight
Moon
Length of Visible Light
Length of Day
Tomorrow will be .
, % of the Moon is Illuminated

Today's Extremes

State Highs State Lows

Community

WunderPhotos

Upload Photos

1,891,050 photos uploaded!

WunderBlog® & News

Nearby

Air Quality

  Air Quality AQ Index Pollutant
Not available.

Snow Depth

Station Depth Elevation

Earthquake Activity

City Distance Mag. Time & Date
Minimum magnitude displayed is 2.5.

Coastal Water Temperatures

Place Temperature

Stations

Nearby Weather Stations

Station Location Temp. Windchill Dew Point Humidity Wind Precip. Elev Updated Type
                   

Watches & Warnings

There are currently no watches in effect.